Station History

Weather Underground - logo

Station Historical Data
Daily Summary for January 4, 2018 Units:  English    Metric   Both
« Previous Day
Next Day »
Daily Weekly Monthly Yearly Custom
  High: Low: Average:
Temperature: 66.6 °F 49.6 °F 56.8 °F
Dew Point: 57.5 °F 42.6 °F 51.4 °F
Humidity: 96 % 67 % 82 %
Wind Speed: 5.8 mph 0.0 mph 1 mph
Wind Gust: 5.8 mph - -
Wind:- - West
Pressure: 30.20 in 30.05 in -
Precipitation: 0.01 in    
Historical Graphs
 
 
Tabular Data for January 4, 2018
Time Temperature Dew Point Pressure Wind Wind Speed Wind Gust Humidity Rainfall Rate (Hourly)
00:02 49.6 °F 45.3 °F 30.05 in East 1.2 mph   85 % 0.00 in
00:04 49.6 °F 45.3 °F 30.05 in NW 1.0 mph 1.0 mph 85 % 0.00 in
00:05 49.6 °F 45.3 °F 30.05 in NW 1.2 mph 1.2 mph 85 % 0.00 in
00:07 49.7 °F 45.4 °F 30.05 in Calm     85 % 0.00 in
00:12 49.8 °F 45.2 °F 30.05 in Calm     84 % 0.00 in
00:16 50.3 °F 45.3 °F 30.05 in NNW 2.3 mph 2.3 mph 83 % 0.00 in
00:19 50.4 °F 45.1 °F 30.05 in North 1.2 mph 1.2 mph 82 % 0.00 in
00:24 50.6 °F 45.3 °F 30.05 in North 2.3 mph 2.3 mph 82 % 0.00 in
00:26 50.6 °F 45.0 °F 30.05 in WNW 1.2 mph 1.2 mph 81 % 0.00 in
00:27 50.6 °F 45.0 °F 30.05 in WNW 1.2 mph 1.2 mph 81 % 0.00 in
00:32 50.6 °F 45.0 °F 30.05 in NNW 1.2 mph   81 % 0.00 in
00:37 50.6 °F 45.0 °F 30.05 in NNW 1.2 mph 1.2 mph 81 % 0.00 in
00:38 50.6 °F 45.0 °F 30.05 in NNW 2.0 mph 2.0 mph 81 % 0.00 in
00:43 50.6 °F 45.0 °F 30.05 in NW 1.2 mph 1.2 mph 81 % 0.00 in
00:48 50.7 °F 45.1 °F 30.05 in NW 1.2 mph   81 % 0.00 in
00:50 50.8 °F 45.2 °F 30.05 in WNW 1.2 mph 1.2 mph 81 % 0.00 in
00:51 50.8 °F 45.2 °F 30.05 in Calm     81 % 0.00 in
00:52 50.8 °F 45.2 °F 30.05 in Calm     81 % 0.00 in
00:59 50.8 °F 44.9 °F 30.05 in Calm     80 % 0.00 in
01:04 50.8 °F 44.5 °F 30.05 in Calm     79 % 0.00 in
01:05 50.8 °F 44.5 °F 30.05 in Calm     79 % 0.00 in
01:10 50.9 °F 44.6 °F 30.05 in WNW 1.2 mph   79 % 0.00 in
01:11 51.0 °F 44.7 °F 30.05 in Calm     79 % 0.00 in
01:14 51.0 °F 44.4 °F 30.05 in Calm     78 % 0.00 in
01:19 50.9 °F 44.3 °F 30.05 in Calm     78 % 0.00 in
01:20 50.9 °F 44.3 °F 30.05 in Calm     78 % 0.00 in
01:25 51.3 °F 44.3 °F 30.05 in Calm     77 % 0.00 in
01:30 51.6 °F 43.9 °F 30.05 in NW 2.3 mph 2.3 mph 75 % 0.00 in
01:35 51.7 °F 43.7 °F 30.05 in Calm     74 % 0.00 in
01:37 51.8 °F 43.4 °F 30.05 in Calm     73 % 0.00 in
01:42 52.2 °F 43.1 °F 30.05 in Calm     71 % 0.00 in
01:43 52.4 °F 42.9 °F 30.05 in WNW 1.2 mph   70 % 0.00 in
01:48 53.2 °F 42.9 °F 30.05 in Calm     68 % 0.00 in
01:49 53.3 °F 42.6 °F 30.05 in Calm     67 % 0.00 in
01:54 53.2 °F 43.3 °F 30.06 in Calm     69 % 0.00 in
01:55 53.1 °F 43.6 °F 30.06 in Calm     70 % 0.00 in
01:58 52.7 °F 43.6 °F 30.06 in Calm     71 % 0.00 in
02:03 52.0 °F 43.3 °F 30.06 in Calm     72 % 0.00 in
02:08 51.7 °F 43.0 °F 30.06 in Calm     72 % 0.00 in
02:09 51.7 °F 43.0 °F 30.06 in Calm     72 % 0.00 in
02:10 51.7 °F 43.0 °F 30.06 in Calm     72 % 0.00 in
02:15 51.8 °F 42.7 °F 30.06 in Calm     71 % 0.00 in
02:18 51.7 °F 43.0 °F 30.06 in Calm     72 % 0.00 in
02:23 51.6 °F 43.6 °F 30.07 in Calm   0.1 mph 74 % 0.00 in
02:28 51.4 °F 43.4 °F 30.07 in Calm     74 % 0.00 in
02:32 51.3 °F 43.6 °F 30.07 in Calm     75 % 0.00 in
02:34 51.3 °F 43.6 °F 30.07 in Calm     75 % 0.00 in
02:39 51.2 °F 44.6 °F 30.06 in Calm     78 % 0.00 in
02:43 51.2 °F 44.9 °F 30.07 in Calm     79 % 0.00 in
02:44 51.2 °F 44.9 °F 30.07 in Calm     79 % 0.00 in
02:48 51.2 °F 45.6 °F 30.07 in Calm     81 % 0.00 in
02:50 51.1 °F 45.5 °F 30.07 in Calm     81 % 0.00 in
02:55 50.8 °F 45.5 °F 30.08 in Calm     82 % 0.00 in
03:00 50.7 °F 45.7 °F 30.08 in Calm     83 % 0.00 in
03:01 50.6 °F 45.6 °F 30.08 in Calm     83 % 0.00 in
03:06 50.7 °F 45.4 °F 30.08 in Calm     82 % 0.00 in
03:12 51.1 °F 45.1 °F 30.08 in NW 1.2 mph 1.2 mph 80 % 0.00 in
03:14 51.4 °F 45.1 °F 30.08 in NW 3.5 mph 3.5 mph 79 % 0.00 in
03:16 51.5 °F 45.2 °F 30.08 in NW 2.0 mph 2.0 mph 79 % 0.00 in
03:21 51.7 °F 45.1 °F 30.08 in NW 1.2 mph 1.2 mph 78 % 0.00 in
03:23 51.8 °F 44.8 °F 30.09 in NW 1.2 mph 1.2 mph 77 % 0.00 in
03:28 52.0 °F 45.0 °F 30.09 in WNW 2.3 mph 2.3 mph 77 % 0.00 in
03:29 52.0 °F 45.4 °F 30.08 in WNW 1.2 mph 1.2 mph 78 % 0.00 in
03:34 51.8 °F 45.5 °F 30.09 in Calm     79 % 0.00 in
03:37 51.7 °F 45.4 °F 30.09 in WNW 1.2 mph 1.2 mph 79 % 0.00 in
03:42 51.6 °F 45.3 °F 30.09 in Calm     79 % 0.00 in
03:43 51.6 °F 45.6 °F 30.09 in Calm     80 % 0.00 in
03:48 51.5 °F 45.5 °F 30.08 in Calm     80 % 0.00 in
03:51 51.5 °F 45.5 °F 30.08 in Calm     80 % 0.00 in
03:56 51.6 °F 46.0 °F 30.09 in WNW 1.2 mph   81 % 0.01 in
03:59 51.6 °F 46.0 °F 30.09 in WNW 1.2 mph 1.2 mph 81 % 0.01 in
04:04 51.9 °F 46.3 °F 30.09 in North 2.3 mph 2.3 mph 81 % 0.01 in
04:05 51.9 °F 46.3 °F 30.09 in NW 2.3 mph 2.3 mph 81 % 0.01 in
04:10 52.2 °F 46.2 °F 30.09 in Calm   0.1 mph 80 % 0.01 in
04:15 52.3 °F 46.3 °F 30.09 in WNW 1.0 mph 1.0 mph 80 % 0.01 in
04:19 52.4 °F 46.4 °F 30.08 in NW 2.3 mph 2.3 mph 80 % 0.01 in
04:21 52.4 °F 46.4 °F 30.08 in NW 1.2 mph 1.2 mph 80 % 0.01 in
04:26 52.5 °F 46.5 °F 30.09 in WNW 1.2 mph 1.2 mph 80 % 0.01 in
04:28 52.4 °F 46.7 °F 30.09 in WNW 2.3 mph 2.3 mph 81 % 0.01 in
04:33 52.2 °F 47.2 °F 30.10 in Calm     83 % 0.01 in
04:38 51.8 °F 47.1 °F 30.09 in NW 1.2 mph 1.2 mph 84 % 0.01 in
04:40 51.8 °F 47.1 °F 30.09 in WNW 1.2 mph 1.2 mph 84 % 0.01 in
04:45 52.0 °F 47.3 °F 30.09 in NW 1.2 mph 1.2 mph 84 % 0.01 in
04:47 52.0 °F 47.3 °F 30.09 in Calm     84 % 0.01 in
04:51 52.1 °F 47.1 °F 30.09 in NW 3.5 mph 3.5 mph 83 % 0.01 in
04:55 52.2 °F 47.2 °F 30.09 in NW 1.2 mph   83 % 0.00 in
04:59 52.4 °F 46.7 °F 30.09 in Calm     81 % 0.00 in
05:02 52.7 °F 47.4 °F 30.09 in NW 3.5 mph 3.5 mph 82 % 0.00 in
05:04 52.6 °F 47.3 °F 30.09 in NNW 2.3 mph 2.3 mph 82 % 0.00 in
05:08 52.6 °F 46.9 °F 30.08 in NW 2.3 mph 2.3 mph 81 % 0.00 in
05:11 52.7 °F 46.7 °F 30.08 in NW 1.2 mph 1.2 mph 80 % 0.00 in
05:15 53.0 °F 47.0 °F 30.08 in NW 2.3 mph 2.3 mph 80 % 0.00 in
05:21 53.0 °F 47.0 °F 30.08 in NW 1.2 mph   80 % 0.00 in
05:26 53.1 °F 46.8 °F 30.08 in NW 1.2 mph 1.2 mph 79 % 0.00 in
05:30 53.2 °F 46.5 °F 30.08 in NW 1.2 mph 1.2 mph 78 % 0.00 in
05:35 53.4 °F 46.7 °F 30.08 in NW 1.2 mph 1.2 mph 78 % 0.00 in
05:40 53.6 °F 46.6 °F 30.09 in WNW 1.2 mph 1.2 mph 77 % 0.00 in
05:42 53.7 °F 47.0 °F 30.09 in WNW 1.2 mph 1.2 mph 78 % 0.00 in
05:45 53.5 °F 47.1 °F 30.10 in WSW 1.2 mph 1.2 mph 79 % 0.00 in
05:46 53.4 °F 47.0 °F 30.10 in WSW 1.2 mph   79 % 0.00 in
05:51 53.1 °F 47.4 °F 30.11 in Calm     81 % 0.00 in
05:54 53.0 °F 47.7 °F 30.11 in WNW 1.2 mph 1.2 mph 82 % 0.00 in
05:59 52.9 °F 47.9 °F 30.12 in NW 1.2 mph 1.2 mph 83 % 0.00 in
06:04 52.8 °F 47.8 °F 30.12 in Calm     83 % 0.00 in
06:09 52.8 °F 47.8 °F 30.12 in Calm     83 % 0.00 in
06:14 52.6 °F 47.9 °F 30.11 in Calm     84 % 0.00 in
06:15 52.6 °F 47.9 °F 30.11 in Calm     84 % 0.00 in
06:19 52.5 °F 48.1 °F 30.11 in SE 1.2 mph 1.2 mph 85 % 0.00 in
06:24 52.4 °F 48.3 °F 30.11 in Calm     86 % 0.00 in
06:25 52.3 °F 48.2 °F 30.12 in Calm     86 % 0.00 in
06:30 52.2 °F 48.1 °F 30.13 in Calm     86 % 0.00 in
06:32 52.1 °F 48.0 °F 30.13 in Calm     86 % 0.00 in
06:37 52.1 °F 48.3 °F 30.13 in Calm     87 % 0.00 in
06:42 52.0 °F 48.3 °F 30.13 in Calm     87 % 0.00 in
06:44 52.0 °F 48.3 °F 30.13 in WNW 1.2 mph 1.2 mph 87 % 0.00 in
06:49 52.2 °F 48.4 °F 30.13 in NW 3.0 mph 3.0 mph 87 % 0.00 in
06:51 52.3 °F 48.2 °F 30.13 in NW 3.5 mph 3.5 mph 86 % 0.00 in
06:55 52.6 °F 48.2 °F 30.13 in NW 2.3 mph 2.3 mph 85 % 0.00 in
06:57 52.6 °F 48.2 °F 30.13 in NNW 1.2 mph 1.2 mph 85 % 0.00 in
07:02 52.8 °F 48.1 °F 30.13 in NW 1.2 mph 1.2 mph 84 % 0.00 in
07:06 53.0 °F 48.3 °F 30.13 in NNW 1.2 mph 1.2 mph 84 % 0.00 in
07:11 53.2 °F 48.5 °F 30.13 in North 1.2 mph 1.2 mph 84 % 0.00 in
07:17 53.4 °F 48.7 °F 30.14 in WNW 1.2 mph   84 % 0.00 in
07:20 53.5 °F 48.5 °F 30.14 in WNW 1.2 mph 1.2 mph 83 % 0.00 in
07:21 53.5 °F 48.8 °F 30.14 in North 4.0 mph 4.0 mph 84 % 0.00 in
07:23 53.6 °F 48.6 °F 30.14 in NW 3.5 mph 3.5 mph 83 % 0.00 in
07:24 53.6 °F 48.9 °F 30.14 in NW 1.2 mph 1.2 mph 84 % 0.00 in
07:27 53.7 °F 49.0 °F 30.15 in NW 1.2 mph 1.2 mph 84 % 0.00 in
07:32 53.7 °F 49.0 °F 30.15 in Calm     84 % 0.00 in
07:36 53.6 °F 49.2 °F 30.15 in NW 1.2 mph 1.2 mph 85 % 0.00 in
07:41 53.5 °F 49.1 °F 30.15 in North 1.2 mph 1.2 mph 85 % 0.00 in
07:45 53.6 °F 49.2 °F 30.16 in NW 1.2 mph 1.2 mph 85 % 0.00 in
07:48 53.5 °F 49.1 °F 30.15 in NNW 2.3 mph 2.3 mph 85 % 0.00 in
07:50 53.5 °F 49.1 °F 30.15 in NNW 1.2 mph 1.2 mph 85 % 0.00 in
07:54 53.5 °F 49.1 °F 30.15 in Calm     85 % 0.00 in
07:59 53.4 °F 49.3 °F 30.15 in ESE 2.3 mph 2.3 mph 86 % 0.00 in
08:04 53.6 °F 49.2 °F 30.15 in Calm     85 % 0.00 in
08:06 53.6 °F 49.2 °F 30.15 in WNW 1.0 mph 1.0 mph 85 % 0.00 in
08:11 53.7 °F 49.3 °F 30.15 in Calm     85 % 0.00 in
08:14 53.9 °F 49.5 °F 30.16 in WNW 1.2 mph   85 % 0.00 in
08:19 54.0 °F 49.6 °F 30.16 in WNW 1.2 mph 1.2 mph 85 % 0.00 in
08:20 54.1 °F 49.7 °F 30.16 in WNW 1.2 mph   85 % 0.00 in
08:21 54.1 °F 49.7 °F 30.16 in NW 1.2 mph   85 % 0.00 in
08:25 54.2 °F 49.8 °F 30.16 in Calm     85 % 0.00 in
08:27 54.3 °F 49.9 °F 30.16 in Calm     85 % 0.00 in
08:30 54.4 °F 50.0 °F 30.16 in Calm     85 % 0.00 in
08:35 54.7 °F 50.0 °F 30.16 in NW 2.3 mph 2.3 mph 84 % 0.00 in
08:38 54.9 °F 50.2 °F 30.17 in WNW 1.2 mph   84 % 0.00 in
08:40 55.0 °F 50.3 °F 30.17 in Calm     84 % 0.00 in
08:45 55.1 °F 50.4 °F 30.17 in WNW 1.2 mph 1.2 mph 84 % 0.00 in
08:48 55.1 °F 50.4 °F 30.17 in WNW 1.2 mph 1.2 mph 84 % 0.00 in
08:53 55.3 °F 50.2 °F 30.16 in WNW 1.2 mph 1.2 mph 83 % 0.00 in
08:57 55.3 °F 50.5 °F 30.16 in NW 3.5 mph   84 % 0.00 in
08:59 55.3 °F 50.5 °F 30.16 in NW 1.2 mph   84 % 0.00 in
09:04 55.3 °F 50.5 °F 30.16 in NW 2.3 mph 2.3 mph 84 % 0.00 in
09:09 55.4 °F 50.6 °F 30.16 in North 1.2 mph 1.2 mph 84 % 0.00 in
09:10 55.4 °F 50.6 °F 30.16 in North 1.2 mph 1.2 mph 84 % 0.00 in
09:15 55.7 °F 50.6 °F 30.16 in NW 1.2 mph 1.2 mph 83 % 0.00 in
09:19 55.8 °F 50.7 °F 30.16 in NNW 2.0 mph 2.2 mph 83 % 0.00 in
09:22 56.1 °F 50.7 °F 30.16 in NW 2.3 mph 2.3 mph 82 % 0.00 in
09:25 56.2 °F 50.8 °F 30.17 in NW 2.3 mph 2.3 mph 82 % 0.00 in
09:30 56.6 °F 50.5 °F 30.17 in NW 1.2 mph 1.2 mph 80 % 0.00 in
09:31 56.6 °F 50.5 °F 30.17 in NW 1.2 mph 1.2 mph 80 % 0.00 in
09:36 57.2 °F 51.1 °F 30.17 in Calm     80 % 0.00 in
09:46 58.6 °F 51.8 °F 30.17 in Calm   0.4 mph 78 % 0.00 in
09:48 58.9 °F 51.7 °F 30.17 in WNW 1.2 mph 1.2 mph 77 % 0.00 in
09:53 59.5 °F 51.9 °F 30.17 in NNW 1.2 mph   76 % 0.00 in
09:59 60.0 °F 51.7 °F 30.18 in Calm     74 % 0.00 in
10:04 60.6 °F 52.3 °F 30.18 in East 3.5 mph 3.5 mph 74 % 0.00 in
10:08 61.1 °F 52.7 °F 30.18 in SSW 3.5 mph 3.5 mph 74 % 0.00 in
10:13 61.6 °F 53.6 °F 30.19 in South 5.8 mph 5.8 mph 75 % 0.00 in
10:15 61.6 °F 54.0 °F 30.19 in SSW 2.3 mph 2.3 mph 76 % 0.00 in
10:20 61.1 °F 53.1 °F 30.19 in NNW 2.3 mph 2.3 mph 75 % 0.00 in
10:21 61.0 °F 53.0 °F 30.19 in SSE 3.5 mph 3.5 mph 75 % 0.00 in
10:26 60.8 °F 53.5 °F 30.18 in SSW 4.6 mph 4.6 mph 77 % 0.00 in
10:30 60.7 °F 53.4 °F 30.19 in NNW 3.5 mph 3.5 mph 77 % 0.00 in
10:35 60.7 °F 53.8 °F 30.18 in NNW 3.5 mph 3.5 mph 78 % 0.00 in
10:40 60.3 °F 53.8 °F 30.18 in SSW 2.3 mph 2.3 mph 79 % 0.00 in
10:41 60.3 °F 53.8 °F 30.18 in SSW 2.3 mph 2.3 mph 79 % 0.00 in
10:42 60.3 °F 54.1 °F 30.18 in SSE 1.2 mph 1.2 mph 80 % 0.00 in
10:47 60.3 °F 54.1 °F 30.18 in Calm     80 % 0.00 in
10:48 60.3 °F 54.4 °F 30.18 in Calm     81 % 0.00 in
10:53 60.3 °F 54.4 °F 30.18 in SSW 2.3 mph 2.3 mph 81 % 0.00 in
10:55 60.3 °F 54.4 °F 30.18 in SSE 3.5 mph 3.5 mph 81 % 0.00 in
11:01 60.4 °F 54.5 °F 30.18 in SSE 3.5 mph 3.5 mph 81 % 0.00 in
11:06 60.5 °F 54.6 °F 30.18 in South 3.5 mph 3.5 mph 81 % 0.00 in
11:10 60.7 °F 54.5 °F 30.18 in SE 3.5 mph 3.5 mph 80 % 0.00 in
11:15 60.9 °F 54.7 °F 30.18 in SE 5.8 mph 5.8 mph 80 % 0.00 in
11:19 61.1 °F 54.5 °F 30.17 in East 3.5 mph 3.5 mph 79 % 0.00 in
11:20 61.1 °F 54.5 °F 30.17 in SSE 3.5 mph 3.5 mph 79 % 0.00 in
11:24 61.1 °F 54.5 °F 30.17 in NE 3.5 mph 3.5 mph 79 % 0.00 in
11:29 61.1 °F 54.5 °F 30.17 in South 3.5 mph 3.5 mph 79 % 0.00 in
11:34 61.0 °F 54.4 °F 30.16 in SSE 3.5 mph 3.5 mph 79 % 0.00 in
11:39 60.9 °F 54.3 °F 30.16 in NE 4.6 mph 4.6 mph 79 % 0.00 in
11:45 60.9 °F 54.3 °F 30.15 in SE 3.5 mph 3.5 mph 79 % 0.00 in
11:48 60.8 °F 54.2 °F 30.15 in East 4.6 mph 4.6 mph 79 % 0.00 in
11:53 61.0 °F 54.1 °F 30.15 in ESE 2.3 mph 2.3 mph 78 % 0.00 in
11:58 61.5 °F 54.6 °F 30.14 in East 3.0 mph 3.0 mph 78 % 0.00 in
12:04 62.5 °F 54.8 °F 30.13 in SSE 3.5 mph 3.5 mph 76 % 0.00 in
12:05 62.5 °F 54.8 °F 30.13 in SSE 3.5 mph 3.5 mph 76 % 0.00 in
12:11 63.8 °F 55.7 °F 30.13 in Calm     75 % 0.00 in
12:14 64.5 °F 55.7 °F 30.13 in SSW 1.2 mph 1.2 mph 73 % 0.00 in
12:16 65.0 °F 56.1 °F 30.13 in SSE 1.2 mph 1.2 mph 73 % 0.00 in
12:17 65.2 °F 55.9 °F 30.13 in North 2.3 mph 2.3 mph 72 % 0.00 in
12:21 65.7 °F 55.6 °F 30.13 in SSW 3.5 mph 3.5 mph 70 % 0.00 in
12:26 65.8 °F 55.3 °F 30.13 in NW 3.5 mph 3.5 mph 69 % 0.00 in
12:31 65.7 °F 55.6 °F 30.13 in SSW 5.8 mph 5.8 mph 70 % 0.00 in
12:33 65.7 °F 55.6 °F 30.13 in SE 2.3 mph 2.3 mph 70 % 0.00 in
12:38 65.6 °F 55.9 °F 30.12 in SSE 3.5 mph 3.5 mph 71 % 0.00 in
12:42 65.5 °F 56.2 °F 30.12 in NNE 3.5 mph 3.5 mph 72 % 0.00 in
12:44 65.4 °F 56.1 °F 30.12 in NW 2.3 mph 2.3 mph 72 % 0.00 in
12:47 65.3 °F 56.0 °F 30.12 in SSE 2.3 mph 2.3 mph 72 % 0.00 in
12:49 65.3 °F 56.4 °F 30.12 in SSW 3.5 mph 3.5 mph 73 % 0.00 in
12:54 65.5 °F 56.2 °F 30.12 in NNW 3.5 mph 3.5 mph 72 % 0.00 in
12:56 65.3 °F 56.4 °F 30.12 in ESE 3.5 mph 3.5 mph 73 % 0.00 in
13:01 65.1 °F 56.6 °F 30.12 in NNW 2.3 mph 2.3 mph 74 % 0.00 in
13:06 64.9 °F 56.4 °F 30.12 in NNW 3.5 mph 3.5 mph 74 % 0.00 in
13:09 64.6 °F 56.9 °F 30.12 in North 2.3 mph   76 % 0.00 in
13:10 64.6 °F 56.9 °F 30.11 in North 2.3 mph 2.3 mph 76 % 0.00 in
13:16 64.0 °F 56.6 °F 30.11 in NNW 2.3 mph 2.3 mph 77 % 0.00 in
13:18 63.8 °F 56.8 °F 30.11 in NW 1.2 mph 1.2 mph 78 % 0.00 in
13:23 64.0 °F 56.6 °F 30.11 in NNW 3.5 mph 3.5 mph 77 % 0.00 in
13:27 64.2 °F 56.5 °F 30.11 in NE 1.2 mph 1.2 mph 76 % 0.00 in
13:29 64.4 °F 56.7 °F 30.11 in NNW 3.0 mph 3.0 mph 76 % 0.00 in
13:30 64.5 °F 56.8 °F 30.11 in WNW 3.5 mph 3.5 mph 76 % 0.00 in
13:33 64.9 °F 57.2 °F 30.11 in ESE 2.3 mph 2.3 mph 76 % 0.00 in
13:35 65.2 °F 57.1 °F 30.11 in ESE 2.3 mph 2.3 mph 75 % 0.00 in
13:36 65.4 °F 57.3 °F 30.11 in SE 1.2 mph   75 % 0.00 in
13:38 65.4 °F 56.9 °F 30.11 in North 2.3 mph 2.3 mph 74 % 0.00 in
13:40 65.3 °F 56.8 °F 30.11 in SSE 1.2 mph 1.2 mph 74 % 0.00 in
13:43 65.5 °F 57.0 °F 30.11 in South 2.3 mph 2.3 mph 74 % 0.00 in
13:47 65.8 °F 56.9 °F 30.10 in SSW 5.8 mph 5.8 mph 73 % 0.00 in
13:48 65.8 °F 56.9 °F 30.10 in South 1.2 mph 1.2 mph 73 % 0.00 in
13:50 66.0 °F 57.1 °F 30.10 in SE 1.0 mph 1.2 mph 73 % 0.00 in
13:53 66.2 °F 56.9 °F 30.10 in SSE 3.5 mph   72 % 0.00 in
13:59 66.3 °F 56.6 °F 30.10 in NNW 2.3 mph 2.3 mph 71 % 0.00 in
14:04 66.0 °F 56.3 °F 30.10 in NNW 1.2 mph 1.2 mph 71 % 0.00 in
14:05 65.9 °F 56.2 °F 30.10 in WNW 1.2 mph 1.2 mph 71 % 0.00 in
14:09 65.8 °F 56.5 °F 30.10 in WNW 1.2 mph   72 % 0.00 in
14:14 65.9 °F 56.6 °F 30.10 in NNW 1.0 mph 1.0 mph 72 % 0.00 in
14:15 65.8 °F 56.5 °F 30.10 in NNW 2.3 mph 2.3 mph 72 % 0.00 in
14:20 65.9 °F 56.6 °F 30.09 in Calm     72 % 0.00 in
14:24 65.7 °F 56.4 °F 30.09 in NW 1.2 mph 1.2 mph 72 % 0.00 in
14:29 65.5 °F 56.6 °F 30.09 in NW 1.0 mph   73 % 0.00 in
14:34 65.5 °F 56.6 °F 30.09 in SSE 1.2 mph 1.2 mph 73 % 0.00 in
14:38 65.6 °F 56.7 °F 30.09 in SSE 1.2 mph 1.2 mph 73 % 0.00 in
14:40 65.7 °F 57.2 °F 30.09 in Calm     74 % 0.00 in
14:45 65.9 °F 57.0 °F 30.09 in Calm     73 % 0.00 in
14:52 66.2 °F 57.3 °F 30.09 in SSW 1.2 mph 1.2 mph 73 % 0.00 in
14:54 66.3 °F 57.0 °F 30.09 in NW 1.2 mph   72 % 0.00 in
14:59 66.6 °F 57.3 °F 30.09 in NW 2.3 mph 2.3 mph 72 % 0.00 in
15:04 66.6 °F 56.9 °F 30.08 in WNW 1.2 mph 1.2 mph 71 % 0.00 in
15:09 66.6 °F 57.3 °F 30.08 in Calm   0.6 mph 72 % 0.00 in
15:14 66.6 °F 57.3 °F 30.08 in WNW 1.2 mph 1.2 mph 72 % 0.00 in
15:20 66.4 °F 57.1 °F 30.08 in WNW 1.2 mph   72 % 0.00 in
15:25 66.3 °F 57.0 °F 30.08 in WNW 2.3 mph 2.3 mph 72 % 0.00 in
15:27 66.2 °F 56.9 °F 30.08 in Calm     72 % 0.00 in
15:32 66.2 °F 56.9 °F 30.08 in NW 1.2 mph 1.2 mph 72 % 0.00 in
15:38 65.9 °F 57.0 °F 30.08 in Calm     73 % 0.00 in
15:40 65.8 °F 56.9 °F 30.08 in WSW 1.2 mph 1.2 mph 73 % 0.00 in
15:45 65.6 °F 57.1 °F 30.08 in WSW 1.2 mph   74 % 0.00 in
15:47 65.6 °F 57.1 °F 30.08 in WSW 1.2 mph   74 % 0.00 in
15:51 65.6 °F 57.5 °F 30.08 in Calm     75 % 0.00 in
15:53 65.5 °F 57.4 °F 30.08 in SSE 1.2 mph   75 % 0.00 in
15:58 65.2 °F 57.1 °F 30.08 in South 1.2 mph 1.2 mph 75 % 0.00 in
16:03 65.0 °F 57.2 °F 30.08 in SW 1.2 mph   76 % 0.00 in
16:09 64.8 °F 57.1 °F 30.08 in Calm     76 % 0.00 in
16:14 64.7 °F 57.3 °F 30.08 in South 1.2 mph 1.2 mph 77 % 0.00 in
16:15 64.6 °F 57.2 °F 30.08 in South 1.2 mph   77 % 0.00 in
16:16 64.6 °F 57.2 °F 30.08 in Calm     77 % 0.00 in
16:21 64.5 °F 57.1 °F 30.08 in WSW 1.2 mph 1.2 mph 77 % 0.00 in
16:26 64.6 °F 57.2 °F 30.08 in Calm     77 % 0.00 in
16:31 64.6 °F 57.2 °F 30.08 in Calm     77 % 0.00 in
16:34 64.5 °F 57.5 °F 30.08 in Calm     78 % 0.00 in
16:40 64.5 °F 57.1 °F 30.08 in Calm     77 % 0.00 in
16:41 64.5 °F 57.1 °F 30.08 in Calm     77 % 0.00 in
16:46 64.4 °F 57.4 °F 30.08 in Calm     78 % 0.00 in
16:51 64.3 °F 57.3 °F 30.09 in Calm     78 % 0.00 in
16:52 64.3 °F 57.3 °F 30.09 in Calm     78 % 0.00 in
16:57 64.1 °F 57.1 °F 30.09 in Calm     78 % 0.00 in
17:02 63.8 °F 57.2 °F 30.09 in Calm     79 % 0.00 in
17:07 63.4 °F 57.1 °F 30.09 in Calm     80 % 0.00 in
17:11 63.1 °F 56.8 °F 30.10 in Calm     80 % 0.00 in
17:16 62.5 °F 56.6 °F 30.10 in Calm     81 % 0.00 in
17:21 62.0 °F 56.4 °F 30.10 in Calm     82 % 0.00 in
17:22 61.8 °F 56.2 °F 30.10 in Calm     82 % 0.00 in
17:27 61.3 °F 56.1 °F 30.10 in Calm     83 % 0.00 in
17:32 60.7 °F 55.8 °F 30.10 in Calm     84 % 0.00 in
17:34 60.5 °F 55.6 °F 30.10 in Calm     84 % 0.00 in
17:39 60.1 °F 55.9 °F 30.10 in Calm     86 % 0.00 in
17:40 60.0 °F 55.8 °F 30.10 in Calm     86 % 0.00 in
17:41 59.9 °F 55.7 °F 30.10 in Calm     86 % 0.00 in
17:46 59.6 °F 55.4 °F 30.10 in Calm     86 % 0.00 in
17:49 59.4 °F 55.5 °F 30.10 in Calm     87 % 0.00 in
17:54 59.1 °F 55.5 °F 30.10 in Calm     88 % 0.00 in
17:57 58.9 °F 55.4 °F 30.10 in Calm     88 % 0.00 in
18:01 58.6 °F 55.1 °F 30.10 in Calm     88 % 0.00 in
18:06 58.2 °F 54.7 °F 30.10 in Calm     88 % 0.00 in
18:09 58.0 °F 54.5 °F 30.10 in Calm     88 % 0.00 in
18:13 57.7 °F 54.5 °F 30.10 in Calm     89 % 0.00 in
18:16 57.5 °F 54.3 °F 30.10 in Calm     89 % 0.00 in
18:17 57.5 °F 54.3 °F 30.10 in Calm     89 % 0.00 in
18:23 57.2 °F 54.0 °F 30.10 in Calm     89 % 0.00 in
18:28 56.9 °F 54.0 °F 30.10 in Calm     90 % 0.00 in
18:29 56.9 °F 54.0 °F 30.10 in Calm     90 % 0.00 in
18:30 56.8 °F 53.9 °F 30.10 in Calm     90 % 0.00 in
18:36 56.7 °F 54.1 °F 30.09 in Calm     91 % 0.00 in
18:39 56.6 °F 54.0 °F 30.09 in Calm     91 % 0.00 in
18:44 56.2 °F 53.3 °F 30.09 in Calm     90 % 0.00 in
18:49 55.9 °F 53.3 °F 30.10 in Calm     91 % 0.00 in
18:54 55.7 °F 53.1 °F 30.10 in Calm     91 % 0.00 in
18:59 55.4 °F 52.8 °F 30.10 in Calm     91 % 0.00 in
19:00 55.4 °F 52.8 °F 30.10 in Calm     91 % 0.00 in
19:05 55.0 °F 52.4 °F 30.10 in Calm     91 % 0.00 in
19:06 55.0 °F 52.4 °F 30.10 in Calm     91 % 0.00 in
19:11 54.8 °F 52.2 °F 30.10 in Calm     91 % 0.00 in
19:16 54.8 °F 52.5 °F 30.11 in Calm     92 % 0.00 in
19:21 54.6 °F 52.3 °F 30.11 in Calm     92 % 0.00 in
19:26 54.4 °F 52.1 °F 30.11 in Calm     92 % 0.00 in
19:27 54.4 °F 52.1 °F 30.11 in Calm     92 % 0.00 in
19:29 54.4 °F 52.1 °F 30.11 in Calm     92 % 0.00 in
19:34 54.5 °F 52.5 °F 30.11 in Calm     93 % 0.00 in
19:39 54.5 °F 52.5 °F 30.11 in Calm     93 % 0.00 in
19:41 54.5 °F 52.5 °F 30.11 in Calm     93 % 0.00 in
19:44 54.5 °F 52.5 °F 30.11 in Calm     93 % 0.00 in
19:47 54.4 °F 52.4 °F 30.11 in Calm     93 % 0.00 in
19:52 54.3 °F 52.3 °F 30.11 in Calm     93 % 0.00 in
19:53 54.2 °F 52.2 °F 30.11 in Calm     93 % 0.00 in
19:58 54.2 °F 52.2 °F 30.11 in Calm     93 % 0.00 in
20:03 54.0 °F 52.0 °F 30.12 in Calm     93 % 0.00 in
20:09 53.7 °F 51.4 °F 30.13 in Calm     92 % 0.00 in
20:14 53.4 °F 51.1 °F 30.13 in Calm     92 % 0.00 in
20:16 53.4 °F 51.4 °F 30.13 in Calm     93 % 0.00 in
20:21 53.4 °F 51.4 °F 30.14 in Calm     93 % 0.00 in
20:22 53.4 °F 51.4 °F 30.14 in Calm     93 % 0.00 in
20:27 53.4 °F 51.4 °F 30.13 in Calm     93 % 0.00 in
20:30 53.3 °F 51.3 °F 30.13 in Calm     93 % 0.00 in
20:35 53.2 °F 51.2 °F 30.14 in Calm     93 % 0.00 in
20:36 53.1 °F 51.1 °F 30.14 in Calm     93 % 0.00 in
20:38 53.1 °F 51.1 °F 30.14 in Calm     93 % 0.00 in
20:43 52.9 °F 50.9 °F 30.14 in Calm     93 % 0.00 in
20:45 52.8 °F 50.8 °F 30.14 in Calm     93 % 0.00 in
20:50 52.8 °F 51.1 °F 30.15 in Calm     94 % 0.00 in
20:53 52.9 °F 51.2 °F 30.16 in Calm     94 % 0.00 in
20:58 53.0 °F 51.3 °F 30.16 in Calm     94 % 0.00 in
21:01 53.0 °F 51.3 °F 30.17 in Calm     94 % 0.00 in
21:06 52.6 °F 50.6 °F 30.17 in Calm     93 % 0.00 in
21:11 52.4 °F 50.7 °F 30.18 in Calm     94 % 0.00 in
21:14 52.4 °F 50.7 °F 30.18 in Calm     94 % 0.00 in
21:20 52.6 °F 50.9 °F 30.18 in Calm     94 % 0.00 in
21:23 52.7 °F 51.0 °F 30.18 in Calm     94 % 0.00 in
21:28 52.8 °F 51.4 °F 30.18 in Calm     95 % 0.00 in
21:30 52.9 °F 51.5 °F 30.18 in Calm     95 % 0.00 in
21:35 53.2 °F 51.8 °F 30.18 in Calm     95 % 0.00 in
21:39 53.4 °F 52.0 °F 30.18 in Calm     95 % 0.00 in
21:44 53.7 °F 52.3 °F 30.19 in Calm     95 % 0.00 in
21:45 53.7 °F 52.3 °F 30.19 in Calm     95 % 0.00 in
21:50 53.8 °F 52.4 °F 30.19 in Calm     95 % 0.00 in
21:52 53.8 °F 52.4 °F 30.19 in Calm     95 % 0.00 in
21:57 54.1 °F 53.0 °F 30.20 in Calm     96 % 0.00 in
21:58 54.2 °F 53.1 °F 30.20 in Calm     96 % 0.00 in
22:03 54.5 °F 53.4 °F 30.19 in Calm     96 % 0.00 in
22:08 54.7 °F 53.6 °F 30.20 in Calm     96 % 0.00 in
22:10 54.8 °F 53.7 °F 30.20 in Calm     96 % 0.00 in
22:14 55.0 °F 53.9 °F 30.20 in Calm     96 % 0.00 in
22:15 55.1 °F 54.0 °F 30.20 in Calm     96 % 0.00 in
22:20 55.8 °F 54.7 °F 30.20 in WNW 1.2 mph   96 % 0.00 in
22:24 55.9 °F 54.8 °F 30.20 in Calm     96 % 0.00 in
22:27 56.0 °F 54.9 °F 30.20 in Calm     96 % 0.00 in
22:31 56.0 °F 54.6 °F 30.20 in Calm     95 % 0.00 in
22:36 55.9 °F 54.5 °F 30.20 in Calm     95 % 0.00 in
22:41 56.0 °F 54.6 °F 30.20 in Calm     95 % 0.00 in
22:46 56.2 °F 54.8 °F 30.20 in Calm     95 % 0.00 in
22:51 56.3 °F 54.6 °F 30.20 in Calm     94 % 0.00 in
22:56 56.4 °F 54.7 °F 30.19 in Calm     94 % 0.00 in
22:57 56.5 °F 54.8 °F 30.20 in Calm     94 % 0.00 in
23:02 56.6 °F 54.9 °F 30.20 in Calm     94 % 0.00 in
23:05 56.6 °F 54.9 °F 30.19 in WNW 1.2 mph 1.2 mph 94 % 0.00 in
23:10 56.8 °F 55.1 °F 30.20 in Calm     94 % 0.00 in
23:11 56.8 °F 55.1 °F 30.20 in Calm     94 % 0.00 in
23:16 56.9 °F 55.2 °F 30.20 in NW 1.2 mph 1.2 mph 94 % 0.00 in
23:23 57.1 °F 55.1 °F 30.19 in NW 1.2 mph 1.2 mph 93 % 0.00 in
23:28 57.0 °F 55.0 °F 30.19 in Calm     93 % 0.00 in
23:32 56.9 °F 54.9 °F 30.19 in Calm     93 % 0.00 in
23:34 56.9 °F 54.9 °F 30.19 in Calm     93 % 0.00 in
23:39 56.6 °F 54.6 °F 30.19 in Calm     93 % 0.00 in
23:41 56.5 °F 54.2 °F 30.18 in Calm     92 % 0.00 in
23:44 56.2 °F 53.9 °F 30.18 in Calm     92 % 0.00 in
23:49 55.9 °F 53.9 °F 30.18 in Calm     93 % 0.00 in
23:51 55.8 °F 53.8 °F 30.18 in Calm     93 % 0.00 in
23:56 55.4 °F 53.4 °F 30.19 in Calm     93 % 0.00 in
23:57 55.3 °F 53.3 °F 30.18 in Calm     93 % 0.00 in
Park Place, Exeter, Tulare County, California, USA
Compliments of Weather Underground - 3.25 mb